sensor_id;sensor_type;location;lat;lon;timestamp;pressure;altitude;pressure_sealevel;temperature
71640;BMP280;60912;48.968;10.124;2023-03-16T00:02:23;96990.78;;;1.66
71640;BMP280;60912;48.968;10.124;2023-03-16T00:04:49;96988.53;;;1.65
71640;BMP280;60912;48.968;10.124;2023-03-16T00:07:14;96992.94;;;1.48
71640;BMP280;60912;48.968;10.124;2023-03-16T00:09:41;96985.06;;;1.50
71640;BMP280;60912;48.968;10.124;2023-03-16T00:12:12;96983.19;;;1.56
71640;BMP280;60912;48.968;10.124;2023-03-16T00:14:41;96979.69;;;1.40
71640;BMP280;60912;48.968;10.124;2023-03-16T00:17:09;96987.22;;;1.45
71640;BMP280;60912;48.968;10.124;2023-03-16T00:19:34;96986.25;;;1.34
71640;BMP280;60912;48.968;10.124;2023-03-16T00:22:02;96996.00;;;1.40
71640;BMP280;60912;48.968;10.124;2023-03-16T00:24:28;96991.47;;;1.08
71640;BMP280;60912;48.968;10.124;2023-03-16T00:26:53;96999.72;;;0.90
71640;BMP280;60912;48.968;10.124;2023-03-16T00:29:19;96996.75;;;0.88
71640;BMP280;60912;48.968;10.124;2023-03-16T00:31:47;96997.94;;;0.87
71640;BMP280;60912;48.968;10.124;2023-03-16T00:34:13;96997.41;;;0.97
71640;BMP280;60912;48.968;10.124;2023-03-16T00:36:39;96998.91;;;0.98
71640;BMP280;60912;48.968;10.124;2023-03-16T00:39:07;96994.41;;;0.95
71640;BMP280;60912;48.968;10.124;2023-03-16T00:41:35;97007.16;;;1.04
71640;BMP280;60912;48.968;10.124;2023-03-16T00:44:05;97000.59;;;0.96
71640;BMP280;60912;48.968;10.124;2023-03-16T00:46:31;97006.88;;;0.78
71640;BMP280;60912;48.968;10.124;2023-03-16T00:48:56;97010.63;;;0.81
71640;BMP280;60912;48.968;10.124;2023-03-16T00:51:22;97009.13;;;0.80
71640;BMP280;60912;48.968;10.124;2023-03-16T00:53:48;97009.59;;;0.78
71640;BMP280;60912;48.968;10.124;2023-03-16T00:56:14;97005.38;;;0.77
71640;BMP280;60912;48.968;10.124;2023-03-16T00:58:40;97002.16;;;0.88
71640;BMP280;60912;48.968;10.124;2023-03-16T01:01:18;97011.75;;;0.98
71640;BMP280;60912;48.968;10.124;2023-03-16T01:03:44;96996.31;;;1.04
71640;BMP280;60912;48.968;10.124;2023-03-16T01:06:12;96997.19;;;1.10
71640;BMP280;60912;48.968;10.124;2023-03-16T01:08:39;96993.28;;;1.02
71640;BMP280;60912;48.968;10.124;2023-03-16T01:11:08;96995.16;;;0.96
71640;BMP280;60912;48.968;10.124;2023-03-16T01:13:34;97000.66;;;0.87
71640;BMP280;60912;48.968;10.124;2023-03-16T01:16:00;96997.88;;;0.96
71640;BMP280;60912;48.968;10.124;2023-03-16T01:18:26;97003.59;;;0.98
71640;BMP280;60912;48.968;10.124;2023-03-16T01:20:52;97000.66;;;0.87
71640;BMP280;60912;48.968;10.124;2023-03-16T01:23:19;96988.59;;;0.88
71640;BMP280;60912;48.968;10.124;2023-03-16T01:25:45;96987.34;;;0.89
71640;BMP280;60912;48.968;10.124;2023-03-16T01:28:22;96979.41;;;0.85
71640;BMP280;60912;48.968;10.124;2023-03-16T01:30:52;96983.50;;;0.81
71640;BMP280;60912;48.968;10.124;2023-03-16T01:33:20;96988.53;;;0.73
71640;BMP280;60912;48.968;10.124;2023-03-16T01:35:53;96983.63;;;0.62
71640;BMP280;60912;48.968;10.124;2023-03-16T01:38:19;96981.53;;;0.57
71640;BMP280;60912;48.968;10.124;2023-03-16T01:40:44;96988.16;;;0.56
71640;BMP280;60912;48.968;10.124;2023-03-16T01:43:10;96977.44;;;0.62
71640;BMP280;60912;48.968;10.124;2023-03-16T01:48:22;96975.25;;;0.75
71640;BMP280;60912;48.968;10.124;2023-03-16T01:50:49;96970.53;;;0.85
71640;BMP280;60912;48.968;10.124;2023-03-16T01:53:17;96972.31;;;0.88
71640;BMP280;60912;48.968;10.124;2023-03-16T01:55:42;96968.66;;;0.91
71640;BMP280;60912;48.968;10.124;2023-03-16T01:58:09;96968.94;;;0.93
71640;BMP280;60912;48.968;10.124;2023-03-16T02:00:35;96969.03;;;0.84
71640;BMP280;60912;48.968;10.124;2023-03-16T02:03:07;96964.88;;;0.73
71640;BMP280;60912;48.968;10.124;2023-03-16T02:05:39;96968.22;;;0.68
71640;BMP280;60912;48.968;10.124;2023-03-16T02:08:07;96966.63;;;0.77
71640;BMP280;60912;48.968;10.124;2023-03-16T02:10:34;96968.50;;;0.94
71640;BMP280;60912;48.968;10.124;2023-03-16T02:13:00;96972.31;;;0.88
71640;BMP280;60912;48.968;10.124;2023-03-16T02:15:25;96970.00;;;0.71
71640;BMP280;60912;48.968;10.124;2023-03-16T02:17:51;96970.53;;;0.85
71640;BMP280;60912;48.968;10.124;2023-03-16T02:22:44;96973.75;;;0.74
71640;BMP280;60912;48.968;10.124;2023-03-16T02:25:12;96967.91;;;0.66
71640;BMP280;60912;48.968;10.124;2023-03-16T02:30:18;96964.91;;;0.64
71640;BMP280;60912;48.968;10.124;2023-03-16T02:32:47;96974.00;;;0.61
71640;BMP280;60912;48.968;10.124;2023-03-16T02:35:13;96972.19;;;0.58
71640;BMP280;60912;48.968;10.124;2023-03-16T02:37:39;96974.00;;;0.52
71640;BMP280;60912;48.968;10.124;2023-03-16T02:40:27;96966.53;;;0.47
71640;BMP280;60912;48.968;10.124;2023-03-16T02:45:22;96962.09;;;0.59
71640;BMP280;60912;48.968;10.124;2023-03-16T02:47:51;96958.69;;;0.73
71640;BMP280;60912;48.968;10.124;2023-03-16T02:50:18;96949.09;;;0.87
71640;BMP280;60912;48.968;10.124;2023-03-16T02:52:43;96946.41;;;0.87
71640;BMP280;60912;48.968;10.124;2023-03-16T02:55:09;96939.56;;;0.91
71640;BMP280;60912;48.968;10.124;2023-03-16T02:57:35;96935.75;;;0.98
71640;BMP280;60912;48.968;10.124;2023-03-16T03:00:00;96937.34;;;1.04
71640;BMP280;60912;48.968;10.124;2023-03-16T03:02:26;96930.66;;;0.91
71640;BMP280;60912;48.968;10.124;2023-03-16T03:04:51;96928.50;;;0.80
71640;BMP280;60912;48.968;10.124;2023-03-16T03:07:20;96927.19;;;0.76
71640;BMP280;60912;48.968;10.124;2023-03-16T03:09:45;96937.16;;;0.46
71640;BMP280;60912;48.968;10.124;2023-03-16T03:12:11;96929.09;;;0.04
71640;BMP280;60912;48.968;10.124;2023-03-16T03:14:37;96938.81;;;-0.14
71640;BMP280;60912;48.968;10.124;2023-03-16T03:17:07;96938.09;;;-0.23
71640;BMP280;60912;48.968;10.124;2023-03-16T03:19:34;96931.91;;;-0.15
71640;BMP280;60912;48.968;10.124;2023-03-16T03:22:02;96926.03;;;-0.13
71640;BMP280;60912;48.968;10.124;2023-03-16T03:24:29;96926.78;;;-0.13
71640;BMP280;60912;48.968;10.124;2023-03-16T03:26:56;96924.50;;;-0.05
71640;BMP280;60912;48.968;10.124;2023-03-16T03:29:21;96936.63;;;0.09
71640;BMP280;60912;48.968;10.124;2023-03-16T03:31:47;96934.47;;;0.13
71640;BMP280;60912;48.968;10.124;2023-03-16T03:34:12;96939.88;;;0.22
71640;BMP280;60912;48.968;10.124;2023-03-16T03:36:37;96941.88;;;0.12
71640;BMP280;60912;48.968;10.124;2023-03-16T03:39:03;96944.97;;;-0.04
71640;BMP280;60912;48.968;10.124;2023-03-16T03:41:30;96940.28;;;-0.04
71640;BMP280;60912;48.968;10.124;2023-03-16T03:43:55;96935.16;;;-0.02
71640;BMP280;60912;48.968;10.124;2023-03-16T03:46:21;96936.88;;;-0.13
71640;BMP280;60912;48.968;10.124;2023-03-16T03:48:46;96923.13;;;-0.10
71640;BMP280;60912;48.968;10.124;2023-03-16T03:51:14;96920.88;;;-0.02
71640;BMP280;60912;48.968;10.124;2023-03-16T03:53:40;96925.50;;;0.07
71640;BMP280;60912;48.968;10.124;2023-03-16T03:56:05;96920.94;;;0.13
71640;BMP280;60912;48.968;10.124;2023-03-16T03:58:31;96920.13;;;-0.03
71640;BMP280;60912;48.968;10.124;2023-03-16T04:00:56;96925.84;;;-0.10
71640;BMP280;60912;48.968;10.124;2023-03-16T04:03:22;96932.22;;;-0.13
71640;BMP280;60912;48.968;10.124;2023-03-16T04:05:47;96924.13;;;-0.31
71640;BMP280;60912;48.968;10.124;2023-03-16T04:08:13;96925.63;;;-0.39
71640;BMP280;60912;48.968;10.124;2023-03-16T04:10:38;96933.00;;;-0.40
71640;BMP280;60912;48.968;10.124;2023-03-16T04:13:03;96928.94;;;-0.26
71640;BMP280;60912;48.968;10.124;2023-03-16T04:15:29;96923.78;;;-0.15
71640;BMP280;60912;48.968;10.124;2023-03-16T04:17:57;96927.34;;;-0.09
71640;BMP280;60912;48.968;10.124;2023-03-16T04:20:22;96929.09;;;0.04
71640;BMP280;60912;48.968;10.124;2023-03-16T04:22:48;96921.16;;;0.00
71640;BMP280;60912;48.968;10.124;2023-03-16T04:25:16;96905.69;;;-0.09
71640;BMP280;60912;48.968;10.124;2023-03-16T04:27:42;96915.56;;;0.04
71640;BMP280;60912;48.968;10.124;2023-03-16T04:30:13;96917.34;;;0.07
71640;BMP280;60912;48.968;10.124;2023-03-16T04:32:39;96912.81;;;0.13
71640;BMP280;60912;48.968;10.124;2023-03-16T04:35:05;96914.31;;;0.14
71640;BMP280;60912;48.968;10.124;2023-03-16T04:37:30;96911.03;;;0.10
71640;BMP280;60912;48.968;10.124;2023-03-16T04:39:56;96910.69;;;0.17
71640;BMP280;60912;48.968;10.124;2023-03-16T04:42:21;96908.63;;;0.12
71640;BMP280;60912;48.968;10.124;2023-03-16T04:44:47;96902.94;;;0.00
71640;BMP280;60912;48.968;10.124;2023-03-16T04:47:14;96892.44;;;-0.07
71640;BMP280;60912;48.968;10.124;2023-03-16T04:49:39;96888.81;;;-0.04
71640;BMP280;60912;48.968;10.124;2023-03-16T04:52:05;96892.09;;;0.00
71640;BMP280;60912;48.968;10.124;2023-03-16T04:54:31;96884.84;;;0.07
71640;BMP280;60912;48.968;10.124;2023-03-16T04:56:57;96876.97;;;0.18
71640;BMP280;60912;48.968;10.124;2023-03-16T04:59:23;96885.31;;;0.29
71640;BMP280;60912;48.968;10.124;2023-03-16T05:01:49;96887.19;;;0.23
71640;BMP280;60912;48.968;10.124;2023-03-16T05:04:15;96887.47;;;0.25
71640;BMP280;60912;48.968;10.124;2023-03-16T05:06:40;96891.09;;;0.22
71640;BMP280;60912;48.968;10.124;2023-03-16T05:09:06;96882.06;;;0.25
71640;BMP280;60912;48.968;10.124;2023-03-16T05:11:34;96880.88;;;0.17
71640;BMP280;60912;48.968;10.124;2023-03-16T05:13:59;96881.91;;;0.19
71640;BMP280;60912;48.968;10.124;2023-03-16T05:16:27;96886.47;;;0.13
71640;BMP280;60912;48.968;10.124;2023-03-16T05:18:52;96881.25;;;0.00
71640;BMP280;60912;48.968;10.124;2023-03-16T05:21:18;96881.91;;;-0.05
71640;BMP280;60912;48.968;10.124;2023-03-16T05:23:44;96883.44;;;-0.13
71640;BMP280;60912;48.968;10.124;2023-03-16T05:26:10;96878.75;;;-0.12
71640;BMP280;60912;48.968;10.124;2023-03-16T05:28:37;96872.41;;;0.00
71640;BMP280;60912;48.968;10.124;2023-03-16T05:31:03;96873.56;;;0.08
71640;BMP280;60912;48.968;10.124;2023-03-16T05:33:28;96876.97;;;0.18
71640;BMP280;60912;48.968;10.124;2023-03-16T05:35:53;96871.78;;;0.29
71640;BMP280;60912;48.968;10.124;2023-03-16T05:38:19;96879.13;;;0.52
71640;BMP280;60912;48.968;10.124;2023-03-16T05:40:44;96881.13;;;0.66
71640;BMP280;60912;48.968;10.124;2023-03-16T05:43:13;96880.19;;;0.69
71640;BMP280;60912;48.968;10.124;2023-03-16T05:45:38;96886.13;;;0.83
71640;BMP280;60912;48.968;10.124;2023-03-16T05:48:03;96887.16;;;0.85
71640;BMP280;60912;48.968;10.124;2023-03-16T05:50:29;96893.72;;;0.93
71640;BMP280;60912;48.968;10.124;2023-03-16T05:52:55;96893.66;;;1.17
71640;BMP280;60912;48.968;10.124;2023-03-16T05:55:20;96903.84;;;1.66
71640;BMP280;60912;48.968;10.124;2023-03-16T05:57:46;96893.25;;;2.18
71640;BMP280;60912;48.968;10.124;2023-03-16T06:00:12;96890.16;;;2.31
71640;BMP280;60912;48.968;10.124;2023-03-16T06:02:44;96889.38;;;2.45
71640;BMP280;60912;48.968;10.124;2023-03-16T06:05:14;96878.47;;;3.11
71640;BMP280;60912;48.968;10.124;2023-03-16T06:07:39;96872.91;;;4.65
71640;BMP280;60912;48.968;10.124;2023-03-16T06:10:06;96874.22;;;6.33
71640;BMP280;60912;48.968;10.124;2023-03-16T06:12:32;96875.03;;;7.88
71640;BMP280;60912;48.968;10.124;2023-03-16T06:14:58;96873.31;;;8.84
71640;BMP280;60912;48.968;10.124;2023-03-16T06:17:24;96867.19;;;9.23
71640;BMP280;60912;48.968;10.124;2023-03-16T06:19:50;96868.25;;;9.33
71640;BMP280;60912;48.968;10.124;2023-03-16T06:22:15;96876.75;;;9.49
71640;BMP280;60912;48.968;10.124;2023-03-16T06:24:42;96872.09;;;9.57
71640;BMP280;60912;48.968;10.124;2023-03-16T06:27:08;96883.31;;;10.25
71640;BMP280;60912;48.968;10.124;2023-03-16T06:29:33;96886.53;;;10.70
71640;BMP280;60912;48.968;10.124;2023-03-16T06:31:58;96884.19;;;11.65
71640;BMP280;60912;48.968;10.124;2023-03-16T06:34:24;96894.88;;;11.96
71640;BMP280;60912;48.968;10.124;2023-03-16T06:36:49;96876.28;;;12.48
71640;BMP280;60912;48.968;10.124;2023-03-16T06:39:15;96885.53;;;11.43
71640;BMP280;60912;48.968;10.124;2023-03-16T06:41:41;96895.53;;;11.82
71640;BMP280;60912;48.968;10.124;2023-03-16T06:44:07;96891.94;;;11.66
71640;BMP280;60912;48.968;10.124;2023-03-16T06:46:33;96880.13;;;11.58
71640;BMP280;60912;48.968;10.124;2023-03-16T06:48:59;96883.91;;;13.01
71640;BMP280;60912;48.968;10.124;2023-03-16T06:51:25;96889.06;;;13.50
71640;BMP280;60912;48.968;10.124;2023-03-16T06:53:51;96884.59;;;14.17
71640;BMP280;60912;48.968;10.124;2023-03-16T06:56:16;96883.81;;;13.76
71640;BMP280;60912;48.968;10.124;2023-03-16T06:58:41;96884.47;;;13.22
71640;BMP280;60912;48.968;10.124;2023-03-16T07:01:07;96887.06;;;13.05
71640;BMP280;60912;48.968;10.124;2023-03-16T07:03:32;96888.75;;;11.90
71640;BMP280;60912;48.968;10.124;2023-03-16T07:05:58;96890.84;;;11.41
71640;BMP280;60912;48.968;10.124;2023-03-16T07:08:23;96885.28;;;10.92
71640;BMP280;60912;48.968;10.124;2023-03-16T07:10:50;96895.19;;;10.53
71640;BMP280;60912;48.968;10.124;2023-03-16T07:13:16;96889.66;;;9.67
71640;BMP280;60912;48.968;10.124;2023-03-16T07:15:41;96889.16;;;9.95
71640;BMP280;60912;48.968;10.124;2023-03-16T07:18:08;96894.72;;;10.29
71640;BMP280;60912;48.968;10.124;2023-03-16T07:20:34;96888.34;;;10.34
71640;BMP280;60912;48.968;10.124;2023-03-16T07:22:59;96893.09;;;9.99
71640;BMP280;60912;48.968;10.124;2023-03-16T07:25:25;96895.38;;;9.56
71640;BMP280;60912;48.968;10.124;2023-03-16T07:27:50;96895.13;;;9.27
71640;BMP280;60912;48.968;10.124;2023-03-16T07:30:16;96897.97;;;8.52
71640;BMP280;60912;48.968;10.124;2023-03-16T07:32:41;96903.19;;;8.13
71640;BMP280;60912;48.968;10.124;2023-03-16T07:35:09;96901.09;;;8.43
71640;BMP280;60912;48.968;10.124;2023-03-16T07:37:36;96903.91;;;8.19
71640;BMP280;60912;48.968;10.124;2023-03-16T07:40:03;96911.56;;;7.78
71640;BMP280;60912;48.968;10.124;2023-03-16T07:42:29;96911.97;;;6.98
71640;BMP280;60912;48.968;10.124;2023-03-16T07:44:54;96906.22;;;7.01
71640;BMP280;60912;48.968;10.124;2023-03-16T07:47:20;96913.91;;;7.08
71640;BMP280;60912;48.968;10.124;2023-03-16T07:49:45;96905.75;;;6.97
71640;BMP280;60912;48.968;10.124;2023-03-16T07:52:11;96911.09;;;7.49
71640;BMP280;60912;48.968;10.124;2023-03-16T07:54:40;96916.94;;;7.35
71640;BMP280;60912;48.968;10.124;2023-03-16T07:57:07;96917.38;;;7.09
71640;BMP280;60912;48.968;10.124;2023-03-16T07:59:32;96911.53;;;7.23
71640;BMP280;60912;48.968;10.124;2023-03-16T08:01:57;96912.31;;;6.31
71640;BMP280;60912;48.968;10.124;2023-03-16T08:04:23;96908.06;;;6.41
71640;BMP280;60912;48.968;10.124;2023-03-16T08:06:48;96909.94;;;6.63
71640;BMP280;60912;48.968;10.124;2023-03-16T08:09:16;96916.56;;;7.19
71640;BMP280;60912;48.968;10.124;2023-03-16T08:11:42;96908.19;;;7.42
71640;BMP280;60912;48.968;10.124;2023-03-16T08:14:07;96919.00;;;6.93
71640;BMP280;60912;48.968;10.124;2023-03-16T08:16:34;96911.44;;;6.58
71640;BMP280;60912;48.968;10.124;2023-03-16T08:19:00;96911.50;;;6.53
71640;BMP280;60912;48.968;10.124;2023-03-16T08:21:26;96898.25;;;6.62
71640;BMP280;60912;48.968;10.124;2023-03-16T08:23:52;96900.47;;;6.64
71640;BMP280;60912;48.968;10.124;2023-03-16T08:26:19;96905.31;;;6.93
71640;BMP280;60912;48.968;10.124;2023-03-16T08:28:46;96905.47;;;6.60
71640;BMP280;60912;48.968;10.124;2023-03-16T08:31:13;96900.84;;;6.90
71640;BMP280;60912;48.968;10.124;2023-03-16T08:33:43;96899.81;;;6.52
71640;BMP280;60912;48.968;10.124;2023-03-16T08:36:11;96895.75;;;6.59
71640;BMP280;60912;48.968;10.124;2023-03-16T08:38:38;96907.28;;;7.28
71640;BMP280;60912;48.968;10.124;2023-03-16T08:41:11;96907.56;;;6.83
71640;BMP280;60912;48.968;10.124;2023-03-16T08:43:37;96904.56;;;6.93
71640;BMP280;60912;48.968;10.124;2023-03-16T08:46:03;96896.59;;;6.83
71640;BMP280;60912;48.968;10.124;2023-03-16T08:48:32;96904.91;;;6.72
71640;BMP280;60912;48.968;10.124;2023-03-16T08:51:08;96904.69;;;6.70
71640;BMP280;60912;48.968;10.124;2023-03-16T08:53:35;96902.72;;;6.65
71640;BMP280;60912;48.968;10.124;2023-03-16T08:56:06;96912.38;;;6.77
71640;BMP280;60912;48.968;10.124;2023-03-16T08:58:32;96904.22;;;6.66
71640;BMP280;60912;48.968;10.124;2023-03-16T09:01:02;96912.13;;;7.16
71640;BMP280;60912;48.968;10.124;2023-03-16T09:03:30;96907.53;;;6.95
71640;BMP280;60912;48.968;10.124;2023-03-16T09:06:01;96911.78;;;7.25
71640;BMP280;60912;48.968;10.124;2023-03-16T09:08:28;96901.06;;;7.57
71640;BMP280;60912;48.968;10.124;2023-03-16T09:11:01;96893.19;;;7.97
71640;BMP280;60912;48.968;10.124;2023-03-16T09:13:27;96898.28;;;8.30
71640;BMP280;60912;48.968;10.124;2023-03-16T09:15:53;96890.84;;;8.25
71640;BMP280;60912;48.968;10.124;2023-03-16T09:18:19;96905.41;;;8.58
71640;BMP280;60912;48.968;10.124;2023-03-16T09:20:44;96899.28;;;8.08
71640;BMP280;60912;48.968;10.124;2023-03-16T09:23:12;96897.09;;;7.77
71640;BMP280;60912;48.968;10.124;2023-03-16T09:25:38;96890.22;;;7.71
71640;BMP280;60912;48.968;10.124;2023-03-16T09:28:03;96898.28;;;8.30
71640;BMP280;60912;48.968;10.124;2023-03-16T09:30:29;96891.97;;;8.54
71640;BMP280;60912;48.968;10.124;2023-03-16T09:32:54;96899.78;;;8.69
71640;BMP280;60912;48.968;10.124;2023-03-16T09:35:20;96900.50;;;8.50
71640;BMP280;60912;48.968;10.124;2023-03-16T09:37:45;96896.34;;;8.44
71640;BMP280;60912;48.968;10.124;2023-03-16T09:40:20;96904.31;;;8.23
71640;BMP280;60912;48.968;10.124;2023-03-16T09:45:54;96910.44;;;7.38
71640;BMP280;60912;48.968;10.124;2023-03-16T09:48:24;96893.09;;;6.94
71640;BMP280;60912;48.968;10.124;2023-03-16T09:50:52;96884.31;;;7.31
71640;BMP280;60912;48.968;10.124;2023-03-16T09:56:04;96874.66;;;8.22
71640;BMP280;60912;48.968;10.124;2023-03-16T09:58:30;96871.47;;;8.36
71640;BMP280;60912;48.968;10.124;2023-03-16T10:01:15;96876.19;;;8.73
71640;BMP280;60912;48.968;10.124;2023-03-16T10:04:15;96881.16;;;8.93
71640;BMP280;60912;48.968;10.124;2023-03-16T10:06:57;96860.09;;;8.83
71640;BMP280;60912;48.968;10.124;2023-03-16T10:11:57;96854.16;;;8.41
71640;BMP280;60912;48.968;10.124;2023-03-16T10:14:51;96859.06;;;8.48
71640;BMP280;60912;48.968;10.124;2023-03-16T10:17:25;96852.06;;;8.85
71640;BMP280;60912;48.968;10.124;2023-03-16T10:20:00;96853.75;;;8.37
71640;BMP280;60912;48.968;10.124;2023-03-16T10:22:31;96856.03;;;8.33
71640;BMP280;60912;48.968;10.124;2023-03-16T10:27:41;96836.81;;;8.33
71640;BMP280;60912;48.968;10.124;2023-03-16T10:30:27;96831.53;;;8.35
71640;BMP280;60912;48.968;10.124;2023-03-16T10:32:54;96827.72;;;8.76
71640;BMP280;60912;48.968;10.124;2023-03-16T10:40:58;96827.78;;;9.02
71640;BMP280;60912;48.968;10.124;2023-03-16T10:43:24;96835.03;;;8.86
71640;BMP280;60912;48.968;10.124;2023-03-16T10:45:50;96830.31;;;9.00
71640;BMP280;60912;48.968;10.124;2023-03-16T10:48:18;96833.19;;;8.76
71640;BMP280;60912;48.968;10.124;2023-03-16T10:50:53;96829.19;;;9.09
71640;BMP280;60912;48.968;10.124;2023-03-16T10:53:22;96827.75;;;9.47
71640;BMP280;60912;48.968;10.124;2023-03-16T10:55:49;96831.00;;;9.19
71640;BMP280;60912;48.968;10.124;2023-03-16T10:58:31;96821.69;;;9.09
71640;BMP280;60912;48.968;10.124;2023-03-16T11:00:58;96821.44;;;8.94
71640;BMP280;60912;48.968;10.124;2023-03-16T11:03:38;96823.75;;;9.03
71640;BMP280;60912;48.968;10.124;2023-03-16T11:06:05;96812.94;;;8.79
71640;BMP280;60912;48.968;10.124;2023-03-16T11:08:36;96814.06;;;9.15
71640;BMP280;60912;48.968;10.124;2023-03-16T11:11:30;96810.19;;;9.37
71640;BMP280;60912;48.968;10.124;2023-03-16T11:13:58;96816.16;;;8.96
71640;BMP280;60912;48.968;10.124;2023-03-16T11:16:29;96809.59;;;9.12
71640;BMP280;60912;48.968;10.124;2023-03-16T11:18:59;96805.28;;;9.04
71640;BMP280;60912;48.968;10.124;2023-03-16T11:23:58;96803.75;;;9.34
71640;BMP280;60912;48.968;10.124;2023-03-16T11:26:35;96802.06;;;9.45
71640;BMP280;60912;48.968;10.124;2023-03-16T11:29:54;96811.56;;;9.57
71640;BMP280;60912;48.968;10.124;2023-03-16T11:32:18;96811.41;;;9.10
71640;BMP280;60912;48.968;10.124;2023-03-16T11:34:45;96808.94;;;8.80
71640;BMP280;60912;48.968;10.124;2023-03-16T11:37:31;96808.19;;;8.92
71640;BMP280;60912;48.968;10.124;2023-03-16T11:40:18;96808.16;;;9.51
71640;BMP280;60912;48.968;10.124;2023-03-16T11:45:35;96817.16;;;9.51
71640;BMP280;60912;48.968;10.124;2023-03-16T11:48:34;96811.97;;;9.21
71640;BMP280;60912;48.968;10.124;2023-03-16T11:51:10;96809.22;;;8.76
71640;BMP280;60912;48.968;10.124;2023-03-16T11:56:28;96806.41;;;8.95
71640;BMP280;60912;48.968;10.124;2023-03-16T11:59:24;96799.16;;;9.24
71640;BMP280;60912;48.968;10.124;2023-03-16T12:12:28;96774.03;;;9.46
71640;BMP280;60912;48.968;10.124;2023-03-16T12:18:08;96774.38;;;9.76
71640;BMP280;60912;48.968;10.124;2023-03-16T12:20:57;96770.31;;;9.91
71640;BMP280;60912;48.968;10.124;2023-03-16T12:23:37;96774.44;;;10.10
71640;BMP280;60912;48.968;10.124;2023-03-16T12:26:04;96762.06;;;9.44
71640;BMP280;60912;48.968;10.124;2023-03-16T12:28:31;96763.44;;;9.37
71640;BMP280;60912;48.968;10.124;2023-03-16T12:31:03;96762.47;;;9.48
71640;BMP280;60912;48.968;10.124;2023-03-16T12:36:54;96757.44;;;10.19
71640;BMP280;60912;48.968;10.124;2023-03-16T12:48:13;96743.06;;;10.13
71640;BMP280;60912;48.968;10.124;2023-03-16T12:50:56;96742.47;;;10.07
71640;BMP280;60912;48.968;10.124;2023-03-16T12:53:51;96746.91;;;10.31
71640;BMP280;60912;48.968;10.124;2023-03-16T12:56:32;96736.00;;;10.67
71640;BMP280;60912;48.968;10.124;2023-03-16T12:59:03;96730.97;;;10.79
71640;BMP280;60912;48.968;10.124;2023-03-16T13:01:41;96723.81;;;10.55
71640;BMP280;60912;48.968;10.124;2023-03-16T13:04:13;96734.59;;;10.53
71640;BMP280;60912;48.968;10.124;2023-03-16T13:06:45;96721.91;;;10.71
71640;BMP280;60912;48.968;10.124;2023-03-16T13:09:24;96729.28;;;10.76
71640;BMP280;60912;48.968;10.124;2023-03-16T13:11:52;96731.59;;;10.92
71640;BMP280;60912;48.968;10.124;2023-03-16T13:14:40;96730.00;;;10.76
71640;BMP280;60912;48.968;10.124;2023-03-16T13:19:42;96732.53;;;10.46
71640;BMP280;60912;48.968;10.124;2023-03-16T13:22:26;96726.88;;;10.72
71640;BMP280;60912;48.968;10.124;2023-03-16T13:27:43;96716.31;;;10.63
71640;BMP280;60912;48.968;10.124;2023-03-16T13:32:42;96726.06;;;10.64
71640;BMP280;60912;48.968;10.124;2023-03-16T13:35:13;96722.38;;;10.82
71640;BMP280;60912;48.968;10.124;2023-03-16T13:37:41;96725.81;;;11.03
71640;BMP280;60912;48.968;10.124;2023-03-16T13:40:24;96721.94;;;11.06
71640;BMP280;60912;48.968;10.124;2023-03-16T13:42:53;96715.47;;;10.96
71640;BMP280;60912;48.968;10.124;2023-03-16T13:45:30;96715.84;;;11.00
71640;BMP280;60912;48.968;10.124;2023-03-16T13:47:58;96704.19;;;10.87
71640;BMP280;60912;48.968;10.124;2023-03-16T13:50:25;96696.25;;;10.83
71640;BMP280;60912;48.968;10.124;2023-03-16T13:52:56;96702.97;;;10.95
71640;BMP280;60912;48.968;10.124;2023-03-16T13:55:35;96704.53;;;11.12
71640;BMP280;60912;48.968;10.124;2023-03-16T13:58:01;96700.78;;;11.01
71640;BMP280;60912;48.968;10.124;2023-03-16T14:00:34;96700.88;;;11.17
71640;BMP280;60912;48.968;10.124;2023-03-16T14:03:12;96702.03;;;11.29
71640;BMP280;60912;48.968;10.124;2023-03-16T14:05:38;96698.78;;;11.38
71640;BMP280;60912;48.968;10.124;2023-03-16T14:08:14;96696.47;;;11.57
71640;BMP280;60912;48.968;10.124;2023-03-16T14:10:40;96683.75;;;11.54
71640;BMP280;60912;48.968;10.124;2023-03-16T14:15:35;96677.13;;;11.14
71640;BMP280;60912;48.968;10.124;2023-03-16T14:18:22;96673.63;;;11.13
71640;BMP280;60912;48.968;10.124;2023-03-16T14:20:53;96672.13;;;11.04
71640;BMP280;60912;48.968;10.124;2023-03-16T14:23:22;96673.28;;;11.17
71640;BMP280;60912;48.968;10.124;2023-03-16T14:25:49;96667.41;;;11.13
71640;BMP280;60912;48.968;10.124;2023-03-16T14:28:16;96660.63;;;10.85
71640;BMP280;60912;48.968;10.124;2023-03-16T14:30:51;96652.38;;;10.57
71640;BMP280;60912;48.968;10.124;2023-03-16T14:33:38;96658.91;;;10.46
71640;BMP280;60912;48.968;10.124;2023-03-16T14:36:16;96655.00;;;10.70
71640;BMP280;60912;48.968;10.124;2023-03-16T14:38:44;96643.78;;;10.68
71640;BMP280;60912;48.968;10.124;2023-03-16T14:41:20;96652.00;;;10.89
71640;BMP280;60912;48.968;10.124;2023-03-16T14:43:49;96649.38;;;11.12
71640;BMP280;60912;48.968;10.124;2023-03-16T14:46:36;96636.59;;;11.44
71640;BMP280;60912;48.968;10.124;2023-03-16T14:51:50;96643.28;;;11.49
71640;BMP280;60912;48.968;10.124;2023-03-16T14:54:18;96650.53;;;11.24
71640;BMP280;60912;48.968;10.124;2023-03-16T14:56:53;96631.56;;;11.13
71640;BMP280;60912;48.968;10.124;2023-03-16T14:59:21;96652.91;;;11.20
71640;BMP280;60912;48.968;10.124;2023-03-16T15:01:48;96632.44;;;11.07
71640;BMP280;60912;48.968;10.124;2023-03-16T15:04:16;96631.66;;;10.99
71640;BMP280;60912;48.968;10.124;2023-03-16T15:06:44;96629.09;;;11.01
71640;BMP280;60912;48.968;10.124;2023-03-16T15:09:39;96628.59;;;11.11
71640;BMP280;60912;48.968;10.124;2023-03-16T15:12:14;96621.06;;;11.19
71640;BMP280;60912;48.968;10.124;2023-03-16T15:14:41;96623.22;;;11.05
71640;BMP280;60912;48.968;10.124;2023-03-16T15:17:25;96624.00;;;10.77
71640;BMP280;60912;48.968;10.124;2023-03-16T15:19:51;96612.19;;;10.97
71640;BMP280;60912;48.968;10.124;2023-03-16T15:22:23;96628.53;;;10.39
71640;BMP280;60912;48.968;10.124;2023-03-16T15:24:49;96625.31;;;10.48
71640;BMP280;60912;48.968;10.124;2023-03-16T15:27:27;96623.00;;;10.39
71640;BMP280;60912;48.968;10.124;2023-03-16T15:29:53;96629.34;;;10.47